createdAt,value
2019-03-24T00:00:48.971Z,37.23
2019-03-24T00:03:22.756Z,34.85
2019-03-24T00:05:54.631Z,35.70
2019-03-24T00:08:26.747Z,44.05
2019-03-24T00:10:58.726Z,37.98
2019-03-24T00:13:30.724Z,36.80
2019-03-24T00:16:02.740Z,39.50
2019-03-24T00:18:34.704Z,40.70
2019-03-24T00:21:06.705Z,36.60
2019-03-24T00:23:39.060Z,43.98
2019-03-24T00:26:13.499Z,39.70
2019-03-24T00:28:45.607Z,33.78
2019-03-24T00:31:19.124Z,37.93
2019-03-24T00:33:51.067Z,41.63
2019-03-24T00:36:22.935Z,43.13
2019-03-24T00:38:54.944Z,35.88
2019-03-24T00:41:27.016Z,36.58
2019-03-24T00:43:59.058Z,38.20
2019-03-24T00:46:30.943Z,43.05
2019-03-24T00:49:03.145Z,37.08
2019-03-24T00:51:35.057Z,37.55
2019-03-24T00:54:07.117Z,43.55
2019-03-24T00:56:39.196Z,35.92
2019-03-24T00:59:11.226Z,34.48
2019-03-24T01:01:43.320Z,38.25
2019-03-24T01:04:15.220Z,34.80
2019-03-24T01:06:47.092Z,40.12
2019-03-24T01:09:20.588Z,39.67
2019-03-24T01:11:53.752Z,40.28
2019-03-24T01:14:25.289Z,33.63
2019-03-24T01:16:57.237Z,42.58
2019-03-24T01:19:29.203Z,32.55
2019-03-24T01:22:01.212Z,34.25
2019-03-24T01:24:33.125Z,33.02
2019-03-24T01:27:05.383Z,34.10
2019-03-24T01:29:37.268Z,35.52
2019-03-24T01:32:09.291Z,36.45
2019-03-24T01:34:41.203Z,34.35
2019-03-24T01:37:13.195Z,35.38
2019-03-24T01:39:45.030Z,37.98
2019-03-24T01:42:17.390Z,44.50
2019-03-24T01:44:49.307Z,39.92
2019-03-24T01:47:21.162Z,34.83
2019-03-24T01:49:53.069Z,33.92
2019-03-24T01:52:25.037Z,34.80
2019-03-24T01:54:56.946Z,40.25
2019-03-24T01:57:29.003Z,37.00
2019-03-24T02:00:00.867Z,33.53
2019-03-24T02:02:32.872Z,36.15
2019-03-24T02:05:05.376Z,45.38
2019-03-24T02:07:37.443Z,40.17
2019-03-24T02:10:10.614Z,34.50
2019-03-24T02:12:42.528Z,33.42
2019-03-24T02:15:16.871Z,34.27
2019-03-24T02:17:48.931Z,34.03
2019-03-24T02:20:20.867Z,37.38
2019-03-24T02:22:52.947Z,38.33
2019-03-24T02:25:24.813Z,37.40
2019-03-24T02:27:59.682Z,40.80
2019-03-24T02:30:31.925Z,35.50
2019-03-24T02:33:05.829Z,36.55
2019-03-24T02:35:37.739Z,33.13
2019-03-24T02:38:09.604Z,40.33
2019-03-24T02:40:41.535Z,48.17
2019-03-24T02:43:13.455Z,36.65
2019-03-24T02:45:45.302Z,36.53
2019-03-24T02:48:17.587Z,36.05
2019-03-24T02:50:49.942Z,43.78
2019-03-24T02:53:22.220Z,31.25
2019-03-24T02:55:54.142Z,32.93
2019-03-24T02:58:26.038Z,36.80
2019-03-24T03:00:57.880Z,29.87
2019-03-24T03:03:30.356Z,37.33
2019-03-24T03:06:02.321Z,32.13
2019-03-24T03:08:34.337Z,29.92
2019-03-24T03:11:06.311Z,27.30
2019-03-24T03:13:38.228Z,26.62
2019-03-24T03:16:10.681Z,29.27
2019-03-24T03:18:42.688Z,33.38
2019-03-24T03:21:14.624Z,27.70
2019-03-24T03:23:46.488Z,35.80
2019-03-24T03:26:18.474Z,27.80
2019-03-24T03:28:50.412Z,25.10
2019-03-24T03:31:22.367Z,30.80
2019-03-24T03:33:54.504Z,27.62
2019-03-24T03:36:26.372Z,24.60
2019-03-24T03:38:59.246Z,28.02
2019-03-24T03:41:31.203Z,33.60
2019-03-24T03:44:05.111Z,27.60
2019-03-24T03:46:37.104Z,33.55
2019-03-24T03:49:08.958Z,27.30
2019-03-24T03:51:40.857Z,26.97
2019-03-24T03:54:12.761Z,26.45
2019-03-24T03:56:44.670Z,26.87
2019-03-24T03:59:16.595Z,26.20
2019-03-24T04:01:48.488Z,34.67
2019-03-24T04:04:20.330Z,24.45
2019-03-24T04:06:52.268Z,33.28
2019-03-24T04:09:24.214Z,25.77
2019-03-24T04:11:56.989Z,25.65
2019-03-24T04:14:28.946Z,28.12
2019-03-24T04:17:07.655Z,26.33
2019-03-24T04:19:35.516Z,25.40
2019-03-24T04:22:07.774Z,23.80
2019-03-24T04:24:39.733Z,28.40
2019-03-24T04:27:11.901Z,27.58
2019-03-24T04:29:45.144Z,26.75
2019-03-24T04:32:17.436Z,29.32
2019-03-24T04:34:49.324Z,28.90
2019-03-24T04:37:23.083Z,30.20
2019-03-24T04:39:56.182Z,29.77
2019-03-24T04:42:28.082Z,26.60
2019-03-24T04:45:00.912Z,33.02
2019-03-24T04:47:33.173Z,28.57
2019-03-24T04:50:06.152Z,28.57
2019-03-24T04:52:38.332Z,24.02
2019-03-24T04:55:10.492Z,29.07
2019-03-24T04:57:42.415Z,29.12
2019-03-24T05:00:15.733Z,31.33
2019-03-24T05:02:47.630Z,24.27
2019-03-24T05:05:19.489Z,27.00
2019-03-24T05:07:52.590Z,25.88
2019-03-24T05:10:28.722Z,26.33
2019-03-24T05:13:00.587Z,27.22
2019-03-24T05:15:32.655Z,29.32
2019-03-24T05:18:04.706Z,32.15
2019-03-24T05:20:36.603Z,32.35
2019-03-24T05:23:08.455Z,26.45
2019-03-24T05:25:40.403Z,26.90
2019-03-24T05:28:13.755Z,24.92
2019-03-24T05:30:45.831Z,25.23
2019-03-24T05:33:17.696Z,22.73
2019-03-24T05:35:49.598Z,23.22
2019-03-24T05:38:23.167Z,24.82
2019-03-24T05:40:55.869Z,22.25
2019-03-24T05:43:27.756Z,24.18
2019-03-24T05:45:59.710Z,23.05
2019-03-24T05:48:31.935Z,31.20
2019-03-24T05:51:03.852Z,26.82
2019-03-24T05:53:35.796Z,26.52
2019-03-24T05:56:07.695Z,32.23
2019-03-24T05:58:40.067Z,24.80
2019-03-24T06:01:12.185Z,27.48
2019-03-24T06:03:44.091Z,26.93
2019-03-24T06:06:17.227Z,28.62
2019-03-24T06:08:51.519Z,21.48
2019-03-24T06:11:24.925Z,20.20
2019-03-24T06:13:56.950Z,18.82
2019-03-24T06:16:28.952Z,25.55
2019-03-24T06:19:00.939Z,20.32
2019-03-24T06:21:32.892Z,27.27
2019-03-24T06:24:04.927Z,24.95
2019-03-24T06:26:36.854Z,24.57
2019-03-24T06:29:08.711Z,21.07
2019-03-24T06:31:40.602Z,25.05
2019-03-24T06:34:12.632Z,24.95
2019-03-24T06:36:44.550Z,20.32
2019-03-24T06:39:16.445Z,22.30
2019-03-24T06:41:48.322Z,23.92
2019-03-24T06:44:21.567Z,18.42
2019-03-24T06:46:53.480Z,23.20
2019-03-24T06:49:25.481Z,20.12
2019-03-24T06:51:57.379Z,24.10
2019-03-24T06:54:29.273Z,20.88
2019-03-24T06:57:01.643Z,25.95
2019-03-24T06:59:33.581Z,24.63
2019-03-24T07:02:05.464Z,23.00
2019-03-24T07:04:37.422Z,20.82
2019-03-24T07:07:09.525Z,23.12
2019-03-24T07:09:41.437Z,17.65
2019-03-24T07:12:13.336Z,19.80
2019-03-24T07:14:45.405Z,20.15
2019-03-24T07:17:18.308Z,19.75
2019-03-24T07:19:50.200Z,16.93
2019-03-24T07:22:22.126Z,16.85
2019-03-24T07:24:54.553Z,20.10
2019-03-24T07:27:29.244Z,19.87
2019-03-24T07:30:01.217Z,22.35
2019-03-24T07:32:34.713Z,20.20
2019-03-24T07:35:06.918Z,17.37
2019-03-24T07:37:38.972Z,17.55
2019-03-24T07:40:11.949Z,21.37
2019-03-24T07:42:43.867Z,18.95
2019-03-24T07:45:18.772Z,16.73
2019-03-24T07:47:50.717Z,20.82
2019-03-24T07:50:22.714Z,22.07
2019-03-24T07:52:54.661Z,20.00
2019-03-24T07:55:26.698Z,19.37
2019-03-24T07:57:59.056Z,17.37
2019-03-24T08:00:35.938Z,18.25
2019-03-24T08:03:07.913Z,16.50
2019-03-24T08:05:39.917Z,18.40
2019-03-24T08:08:11.815Z,15.18
2019-03-24T08:10:43.733Z,20.10
2019-03-24T08:13:16.900Z,16.42
2019-03-24T08:15:50.008Z,19.00
2019-03-24T08:18:29.583Z,26.48
2019-03-24T08:20:55.683Z,48.48
2019-03-24T08:23:27.636Z,54.42
2019-03-24T08:26:04.844Z,47.10
2019-03-24T08:28:36.755Z,40.63
2019-03-24T08:31:11.307Z,48.65
2019-03-24T08:33:43.219Z,96.53
2019-03-24T08:36:18.566Z,89.97
2019-03-24T08:38:50.801Z,53.13
2019-03-24T08:41:24.221Z,42.93
2019-03-24T08:43:56.233Z,48.95
2019-03-24T08:46:28.253Z,44.08
2019-03-24T08:49:00.245Z,40.95
2019-03-24T08:51:32.155Z,37.93
2019-03-24T08:54:04.103Z,30.12
2019-03-24T08:56:35.961Z,25.17
2019-03-24T08:59:07.969Z,28.55
2019-03-24T09:01:39.880Z,23.57
2019-03-24T09:04:11.783Z,25.52
2019-03-24T09:06:43.664Z,24.82
2019-03-24T09:09:15.645Z,25.68
2019-03-24T09:11:48.900Z,26.77
2019-03-24T09:14:21.038Z,32.75
2019-03-24T09:16:53.038Z,30.45
2019-03-24T09:19:24.971Z,32.23
2019-03-24T09:21:59.448Z,36.95
2019-03-24T09:24:31.649Z,37.10
2019-03-24T09:27:03.637Z,32.13
2019-03-24T09:29:37.025Z,29.92
2019-03-24T09:32:09.018Z,26.62
2019-03-24T09:34:43.175Z,28.30
2019-03-24T09:37:16.309Z,25.35
2019-03-24T09:39:48.296Z,25.75
2019-03-24T09:42:20.267Z,20.85
2019-03-24T09:44:52.383Z,23.62
2019-03-24T09:47:24.380Z,18.50
2019-03-24T09:49:56.367Z,20.20
2019-03-24T09:52:28.225Z,18.25
2019-03-24T09:55:00.340Z,13.60
2019-03-24T09:57:32.284Z,11.20
2019-03-24T10:00:04.601Z,8.93
2019-03-24T10:02:36.537Z,9.78
2019-03-24T10:05:08.747Z,10.25
2019-03-24T10:07:40.685Z,8.80
2019-03-24T10:10:13.025Z,9.18
2019-03-24T10:12:44.923Z,9.70
2019-03-24T10:15:20.071Z,8.48
2019-03-24T10:17:51.996Z,6.55
2019-03-24T10:20:25.027Z,8.53
2019-03-24T10:22:56.874Z,12.20
2019-03-24T10:25:31.895Z,7.75
2019-03-24T10:28:03.883Z,9.80
2019-03-24T10:30:35.800Z,7.92
2019-03-24T10:33:07.706Z,8.55
2019-03-24T10:35:39.857Z,8.50
2019-03-24T10:38:11.721Z,10.20
2019-03-24T10:40:43.617Z,8.75
2019-03-24T10:43:15.555Z,5.67
2019-03-24T10:45:47.909Z,8.60
2019-03-24T10:48:20.017Z,6.62
2019-03-24T10:50:51.891Z,8.13
2019-03-24T10:53:23.807Z,9.83
2019-03-24T10:55:55.753Z,9.13
2019-03-24T10:58:27.625Z,6.85
2019-03-24T11:00:59.477Z,5.65
2019-03-24T11:03:31.479Z,7.53
2019-03-24T11:06:04.138Z,5.05
2019-03-24T11:08:36.036Z,9.73
2019-03-24T11:11:07.880Z,8.88
2019-03-24T11:13:39.837Z,8.38
2019-03-24T11:16:11.749Z,9.50
2019-03-24T11:18:45.099Z,8.45
2019-03-24T11:21:16.986Z,8.03
2019-03-24T11:23:48.848Z,10.28
2019-03-24T11:26:20.909Z,8.25
2019-03-24T11:28:52.790Z,6.35
2019-03-24T11:31:24.811Z,11.25
2019-03-24T11:33:56.721Z,12.00
2019-03-24T11:36:28.571Z,10.88
2019-03-24T11:39:00.437Z,8.68
2019-03-24T11:41:33.981Z,8.58
2019-03-24T11:44:07.427Z,9.40
2019-03-24T11:46:39.286Z,9.50
2019-03-24T11:49:20.792Z,8.45
2019-03-24T11:51:52.825Z,9.78
2019-03-24T11:54:24.700Z,7.80
2019-03-24T11:56:56.604Z,9.70
2019-03-24T11:59:28.466Z,10.15
2019-03-24T12:02:00.770Z,11.30
2019-03-24T12:04:33.944Z,11.95
2019-03-24T12:07:06.856Z,11.60
2019-03-24T12:09:44.569Z,9.88
2019-03-24T12:12:22.042Z,8.85
2019-03-24T12:14:54.190Z,6.75
2019-03-24T12:17:26.108Z,8.58
2019-03-24T12:19:57.992Z,14.55
2019-03-24T12:22:29.864Z,4.80
2019-03-24T12:26:55.074Z,10.48
2019-03-24T12:29:27.878Z,11.10
2019-03-24T12:32:01.954Z,11.03
2019-03-24T12:34:34.478Z,7.00
2019-03-24T12:37:07.090Z,10.50
2019-03-24T12:39:39.658Z,5.72
2019-03-24T12:42:12.077Z,6.05
2019-03-24T12:44:44.463Z,8.40
2019-03-24T12:47:16.895Z,10.93
2019-03-24T12:49:49.299Z,6.75
2019-03-24T12:52:21.736Z,11.43
2019-03-24T12:54:54.131Z,6.97
2019-03-24T12:57:26.526Z,7.33
2019-03-24T13:00:01.331Z,6.25
2019-03-24T13:02:34.501Z,6.60
2019-03-24T13:05:09.281Z,8.33
2019-03-24T13:07:41.714Z,7.60
2019-03-24T13:10:14.375Z,12.68
2019-03-24T13:12:46.782Z,7.95
2019-03-24T13:15:19.180Z,6.95
2019-03-24T13:17:51.693Z,9.53
2019-03-24T13:20:37.851Z,8.55
2019-03-24T13:22:58.186Z,7.20
2019-03-24T13:25:30.647Z,7.17
2019-03-24T13:28:03.062Z,5.47
2019-03-24T13:30:35.936Z,9.75
2019-03-24T13:33:08.372Z,8.90
2019-03-24T13:35:40.860Z,6.37
2019-03-24T13:38:13.700Z,6.55
2019-03-24T13:40:46.104Z,8.80
2019-03-24T13:43:18.499Z,9.83
2019-03-24T13:45:50.926Z,8.38
2019-03-24T13:48:23.339Z,9.70
2019-03-24T13:50:55.779Z,6.55
2019-03-24T13:53:28.324Z,11.43
2019-03-24T13:56:00.765Z,9.75
2019-03-24T13:58:33.992Z,8.08
2019-03-24T14:01:07.704Z,6.33
2019-03-24T14:03:44.181Z,8.75
2019-03-24T14:06:16.726Z,6.50
2019-03-24T14:08:49.576Z,6.62
2019-03-24T14:11:24.159Z,10.80
2019-03-24T14:13:56.109Z,10.45
2019-03-24T14:16:28.542Z,10.00
2019-03-24T14:19:01.051Z,7.97
2019-03-24T14:21:34.066Z,7.37
2019-03-24T14:24:06.730Z,11.73
2019-03-24T14:26:39.137Z,8.08
2019-03-24T14:29:11.536Z,12.60
2019-03-24T14:31:43.947Z,11.38
2019-03-24T14:34:16.379Z,13.32
2019-03-24T14:36:48.777Z,9.73
2019-03-24T14:39:21.302Z,10.13
2019-03-24T14:41:53.704Z,10.50
2019-03-24T14:44:26.223Z,8.53
2019-03-24T14:46:58.671Z,8.65
2019-03-24T14:49:31.267Z,9.40
2019-03-24T14:52:03.791Z,7.92
2019-03-24T14:54:36.204Z,8.45
2019-03-24T14:57:08.604Z,9.90
2019-03-24T14:59:41.009Z,10.05
2019-03-24T15:02:13.511Z,7.70
2019-03-24T15:04:46.030Z,13.30
2019-03-24T15:07:18.515Z,9.60
2019-03-24T15:09:50.903Z,9.28
2019-03-24T15:12:23.334Z,8.55
2019-03-24T15:14:55.719Z,14.25
2019-03-24T15:17:28.121Z,10.20
2019-03-24T15:20:00.658Z,8.98
2019-03-24T15:22:33.092Z,11.28
2019-03-24T15:25:05.872Z,10.30
2019-03-24T15:27:38.326Z,10.50
2019-03-24T15:30:12.127Z,7.70
2019-03-24T15:32:44.530Z,8.30
2019-03-24T15:35:16.983Z,11.22
2019-03-24T15:37:49.379Z,6.78
2019-03-24T15:40:22.139Z,13.40
2019-03-24T15:42:54.833Z,9.38
2019-03-24T15:45:27.255Z,8.65
2019-03-24T15:48:00.784Z,10.13
2019-03-24T15:50:34.316Z,12.20
2019-03-24T15:53:06.753Z,6.65
2019-03-24T15:55:39.139Z,14.45
2019-03-24T15:58:12.538Z,10.38
2019-03-24T16:00:50.141Z,9.83
2019-03-24T16:03:23.829Z,10.30
2019-03-24T16:05:56.616Z,7.60
2019-03-24T16:08:29.092Z,10.32
2019-03-24T16:11:01.480Z,6.25
2019-03-24T16:13:34.175Z,9.90
2019-03-24T16:16:06.740Z,6.03
2019-03-24T16:18:39.601Z,12.88
2019-03-24T16:21:12.076Z,9.18
2019-03-24T16:23:45.790Z,7.67
2019-03-24T16:26:18.235Z,10.15
2019-03-24T16:28:50.609Z,6.08
2019-03-24T16:31:23.089Z,7.53
2019-03-24T16:33:55.503Z,7.90
2019-03-24T16:36:27.964Z,7.90
2019-03-24T16:39:03.734Z,5.62
2019-03-24T16:41:36.094Z,11.78
2019-03-24T16:44:08.538Z,8.85
2019-03-24T16:46:41.012Z,8.58
2019-03-24T16:49:13.463Z,7.62
2019-03-24T16:51:46.461Z,7.17
2019-03-24T16:54:18.963Z,11.57
2019-03-24T16:56:51.373Z,7.62
2019-03-24T16:59:23.951Z,10.32
2019-03-24T17:01:59.028Z,9.45
2019-03-24T17:04:31.614Z,10.78
2019-03-24T17:07:04.240Z,7.45
2019-03-24T17:09:36.729Z,9.53
2019-03-24T17:12:09.343Z,13.32
2019-03-24T17:14:41.764Z,8.95
2019-03-24T17:17:15.526Z,14.47
2019-03-24T17:19:48.202Z,8.45
2019-03-24T17:22:20.804Z,7.80
2019-03-24T17:24:53.295Z,8.45
2019-03-24T17:27:26.382Z,11.93
2019-03-24T17:29:58.933Z,8.03
2019-03-24T17:32:31.482Z,9.00
2019-03-24T17:35:05.032Z,8.43
2019-03-24T17:37:37.842Z,9.93
2019-03-24T17:40:12.667Z,8.88
2019-03-24T17:42:46.069Z,7.35
2019-03-24T17:45:19.088Z,9.48
2019-03-24T17:47:52.170Z,8.55
2019-03-24T17:50:24.733Z,11.22
2019-03-24T17:52:57.256Z,10.93
2019-03-24T17:55:31.039Z,12.85
2019-03-24T17:58:06.043Z,8.35
2019-03-24T18:00:42.690Z,10.20
2019-03-24T18:03:15.266Z,11.63
2019-03-24T18:05:47.779Z,13.20
2019-03-24T18:08:22.232Z,7.42
2019-03-24T18:10:54.352Z,6.20
2019-03-24T18:13:26.845Z,7.33
2019-03-24T18:15:59.317Z,11.25
2019-03-24T18:18:33.885Z,8.68
2019-03-24T18:21:06.473Z,10.55
2019-03-24T18:23:38.998Z,9.80
2019-03-24T18:26:11.681Z,8.83
2019-03-24T18:28:44.207Z,11.75
2019-03-24T18:31:17.674Z,11.15
2019-03-24T18:33:50.780Z,10.93
2019-03-24T18:36:23.255Z,9.53
2019-03-24T18:38:55.840Z,6.05
2019-03-24T18:41:28.541Z,8.85
2019-03-24T18:44:02.272Z,8.48
2019-03-24T18:46:34.945Z,13.13
2019-03-24T18:49:10.846Z,17.10
2019-03-24T18:51:45.254Z,17.15
2019-03-24T18:54:17.969Z,15.05
2019-03-24T18:56:52.128Z,13.20
2019-03-24T18:59:25.226Z,10.85
2019-03-24T19:02:00.507Z,13.25
2019-03-24T19:04:33.430Z,14.60
2019-03-24T19:07:07.311Z,12.70
2019-03-24T19:09:42.652Z,13.03
2019-03-24T19:12:16.051Z,11.75
2019-03-24T19:14:48.780Z,16.30
2019-03-24T19:17:24.100Z,19.65
2019-03-24T19:19:59.559Z,21.70
2019-03-24T19:22:33.859Z,13.45
2019-03-24T19:25:05.849Z,11.78
2019-03-24T19:27:39.071Z,12.95
2019-03-24T19:30:13.068Z,17.27
2019-03-24T19:32:45.848Z,12.10
2019-03-24T19:35:19.809Z,17.10
2019-03-24T19:37:54.267Z,30.25
2019-03-24T19:40:28.716Z,21.77
2019-03-24T19:43:02.160Z,20.72
2019-03-24T19:45:35.024Z,9.90
2019-03-24T19:48:07.758Z,11.30
2019-03-24T19:50:40.426Z,15.55
2019-03-24T19:53:13.372Z,15.15
2019-03-24T19:55:46.355Z,18.80
2019-03-24T19:58:18.979Z,12.28
2019-03-24T20:00:51.671Z,18.00
2019-03-24T20:03:24.396Z,11.12
2019-03-24T20:05:57.438Z,15.08
2019-03-24T20:10:12.775Z,17.00
2019-03-24T20:12:45.783Z,17.48
2019-03-24T20:15:19.370Z,14.47
2019-03-24T20:17:52.203Z,16.32
2019-03-24T20:20:26.281Z,19.25
2019-03-24T20:22:59.128Z,10.18
2019-03-24T20:25:33.465Z,15.83
2019-03-24T20:28:07.358Z,17.75
2019-03-24T20:30:43.191Z,30.05
2019-03-24T20:33:16.133Z,12.70
2019-03-24T20:35:51.460Z,22.40
2019-03-24T20:38:24.357Z,21.77
2019-03-24T20:40:57.395Z,18.23
2019-03-24T20:43:30.483Z,19.80
2019-03-24T20:46:04.286Z,18.50
2019-03-24T20:48:37.888Z,19.73
2019-03-24T20:51:10.620Z,20.10
2019-03-24T20:53:43.507Z,22.20
2019-03-24T20:56:16.376Z,16.00
2019-03-24T20:58:49.200Z,18.75
2019-03-24T21:01:22.115Z,13.13
2019-03-24T21:03:55.035Z,26.35
2019-03-24T21:06:27.973Z,17.40
2019-03-24T21:09:02.919Z,17.40
2019-03-24T21:11:36.731Z,21.50
2019-03-24T21:14:10.825Z,28.00
2019-03-24T21:16:44.861Z,19.67
2019-03-24T21:19:18.760Z,23.12
2019-03-24T21:21:52.099Z,19.30
2019-03-24T21:24:25.052Z,25.35
2019-03-24T21:26:57.825Z,22.10
2019-03-24T21:29:31.553Z,23.15
2019-03-24T21:32:04.369Z,23.15
2019-03-24T21:34:38.524Z,19.65
2019-03-24T21:37:11.297Z,22.25
2019-03-24T21:39:44.267Z,21.50
2019-03-24T21:42:16.957Z,29.25
2019-03-24T21:44:51.449Z,17.73
2019-03-24T21:47:24.582Z,23.77
2019-03-24T21:50:00.104Z,17.20
2019-03-24T21:52:35.375Z,24.35
2019-03-24T21:55:08.843Z,18.62
2019-03-24T21:57:41.660Z,19.30
2019-03-24T22:00:14.764Z,22.90
2019-03-24T22:02:47.965Z,24.25
2019-03-24T22:05:24.318Z,18.60
2019-03-24T22:08:00.197Z,20.85
2019-03-24T22:10:36.136Z,27.45
2019-03-24T22:13:13.654Z,25.37
2019-03-24T22:15:46.565Z,20.15
2019-03-24T22:18:20.735Z,24.87
2019-03-24T22:20:53.577Z,27.00
2019-03-24T22:23:26.250Z,23.25
2019-03-24T22:25:58.873Z,36.33
2019-03-24T22:28:31.898Z,20.08
2019-03-24T22:31:04.602Z,23.22
2019-03-24T22:33:41.691Z,20.35
2019-03-24T22:36:16.460Z,24.82
2019-03-24T22:38:49.101Z,22.52
2019-03-24T22:41:21.777Z,24.07
2019-03-24T22:43:54.561Z,53.17
2019-03-24T22:46:27.234Z,34.10
2019-03-24T22:48:59.851Z,28.17
2019-03-24T22:51:34.357Z,26.52
2019-03-24T22:54:07.012Z,22.10
2019-03-24T22:56:39.971Z,23.70
2019-03-24T22:59:14.284Z,20.10
2019-03-24T23:01:47.529Z,22.55
2019-03-24T23:04:20.199Z,17.37
2019-03-24T23:06:52.815Z,16.65
2019-03-24T23:09:25.592Z,20.25
2019-03-24T23:11:58.199Z,22.87
2019-03-24T23:14:32.441Z,28.47
2019-03-24T23:17:06.966Z,18.92
2019-03-24T23:19:39.628Z,20.90
2019-03-24T23:22:12.321Z,25.68
2019-03-24T23:24:44.936Z,28.80
2019-03-24T23:27:17.584Z,28.17
2019-03-24T23:29:51.842Z,22.87
2019-03-24T23:32:24.520Z,23.52
2019-03-24T23:34:57.511Z,18.60
2019-03-24T23:37:30.739Z,25.80
2019-03-24T23:40:03.868Z,25.68
2019-03-24T23:42:36.587Z,21.27
2019-03-24T23:45:09.915Z,20.60
2019-03-24T23:47:42.598Z,25.40
2019-03-24T23:50:15.574Z,23.85
2019-03-24T23:52:48.285Z,21.70
2019-03-24T23:55:20.954Z,21.48
2019-03-24T23:57:55.455Z,22.20
